Time;durP1;ratioP1;P1;durP2;ratioP2;P2;SDS_P1;SDS_P2;PMS_P1;PMS_P2;Temp;Humidity;BMP_temperature;BMP_pressure;BME280_temperature;BME280_humidity;BME280_pressure;Samples;Min_cycle;Max_cycle;Signal;HPM_P1;HPM_P2
2022/04/17 04:46:27;;;;;;;7.03;6.50;;;;;;;12.96;91.14;91910.03;6240203;22;882778;-70
2022/04/17 04:51:49;;;;;;;6.13;5.37;;;;;;;12.76;91.92;91910.47;6155269;23;20577;-74
2022/04/17 04:54:19;;;;;;;5.70;5.30;;;;;;;12.33;91.97;91842.19;6154850;23;20421;-73
2022/04/17 04:56:49;;;;;;;6.93;6.27;;;;;;;12.59;92.43;91880.28;6154826;23;20440;-73
2022/04/17 04:59:27;;;;;;;7.00;6.40;;;;;;;12.29;92.36;91830.59;6155745;23;20392;-73
2022/04/17 05:02:00;;;;;;;13.57;9.43;;;;;;;12.93;94.15;91906.88;6154609;23;20451;-74
2022/04/17 05:04:32;;;;;;;10.73;8.53;;;;;;;12.75;93.95;91906.28;6155286;23;20238;-72
2022/04/17 05:07:00;;;;;;;15.17;9.43;;;;;;;12.60;93.95;91884.44;6155585;23;20542;-72
2022/04/17 05:09:28;;;;;;;18.87;10.57;;;;;;;12.84;94.16;91908.28;6153349;23;20583;-71
2022/04/17 05:11:55;;;;;;;11.97;8.67;;;;;;;12.83;93.35;91912.53;6153464;23;20543;-71
2022/04/17 05:14:22;;;;;;;16.03;10.13;;;;;;;13.09;93.02;91905.00;6155048;23;20387;-72
2022/04/17 05:16:50;;;;;;;18.37;8.47;;;;;;;12.91;93.62;91906.97;6155155;23;20531;-72
2022/04/17 05:19:20;;;;;;;11.47;7.53;;;;;;;13.02;93.22;91911.34;6155137;23;20406;-73
2022/04/17 05:21:48;;;;;;;7.00;6.50;;;;;;;12.94;92.40;91888.22;6154852;23;20511;-73
2022/04/17 05:24:16;;;;;;;6.20;5.80;;;;;;;12.92;91.68;91898.44;6156286;23;20491;-72
2022/04/17 05:26:43;;;;;;;11.63;5.67;;;;;;;12.72;91.31;91903.97;6154959;23;20155;-73
2022/04/17 05:29:11;;;;;;;4.67;4.47;;;;;;;12.58;91.99;91904.81;6154808;23;20455;-72
2022/04/17 05:31:38;;;;;;;5.23;4.83;;;;;;;12.50;93.38;91896.88;6155395;23;20453;-72
2022/04/17 05:34:05;;;;;;;5.40;5.13;;;;;;;12.53;93.35;91890.78;6154984;23;20415;-72
2022/04/17 05:36:34;;;;;;;5.27;4.77;;;;;;;12.78;92.29;91901.88;6155012;23;20152;-72
2022/04/17 05:39:01;;;;;;;8.13;7.43;;;;;;;12.72;92.44;91906.50;6155017;23;20254;-72
2022/04/17 05:41:29;;;;;;;8.37;6.80;;;;;;;12.65;92.49;91898.47;6155264;23;20160;-73
2022/04/17 05:43:59;;;;;;;8.17;7.30;;;;;;;12.68;92.28;91892.38;6154605;23;20167;-74
2022/04/17 05:46:29;;;;;;;6.57;5.97;;;;;;;12.71;92.75;91897.28;6158476;23;20214;-72
2022/04/17 05:48:57;;;;;;;9.20;6.87;;;;;;;12.77;93.27;91902.78;6184530;23;20523;-72
2022/04/17 05:51:25;;;;;;;8.67;5.53;;;;;;;12.68;92.38;91905.03;6185085;23;20366;-73
2022/04/17 05:53:53;;;;;;;13.03;6.37;;;;;;;12.70;93.31;91900.69;6184493;23;20519;-72
2022/04/17 05:56:21;;;;;;;7.03;4.70;;;;;;;12.61;93.85;91901.28;6183707;23;20258;-72
2022/04/17 05:58:48;;;;;;;10.30;6.77;;;;;;;12.44;95.01;91877.81;6183822;23;20158;-73
2022/04/17 06:01:15;;;;;;;8.67;7.73;;;;;;;12.68;94.76;91898.25;6184777;23;20515;-73
2022/04/17 06:03:43;;;;;;;10.13;6.07;;;;;;;12.65;94.58;91878.19;6186717;23;20495;-73
2022/04/17 06:06:10;;;;;;;9.57;5.43;;;;;;;12.56;91.73;91888.91;6186081;23;20550;-72
2022/04/17 06:08:38;;;;;;;6.73;6.20;;;;;;;12.64;91.97;91903.63;6185801;23;20543;-74
2022/04/17 06:11:06;;;;;;;7.67;6.60;;;;;;;12.67;91.95;91888.25;6186721;23;20527;-74
2022/04/17 06:13:34;;;;;;;7.50;6.00;;;;;;;12.74;90.83;91890.28;6186478;23;20554;-75
2022/04/17 06:16:01;;;;;;;6.37;5.77;;;;;;;12.80;91.47;91879.75;6186341;23;20167;-74
2022/04/17 06:18:29;;;;;;;4.90;4.50;;;;;;;12.80;91.23;91874.69;6186463;23;20534;-75
2022/04/17 06:20:56;;;;;;;5.90;5.50;;;;;;;12.78;92.76;91873.19;6186240;23;20395;-74
2022/04/17 06:23:24;;;;;;;5.87;5.17;;;;;;;12.78;93.47;91868.91;6186510;23;20522;-75
2022/04/17 06:25:51;;;;;;;8.80;6.23;;;;;;;12.83;93.78;91874.50;6186375;23;20590;-74
2022/04/17 06:28:20;;;;;;;6.10;5.67;;;;;;;13.06;91.99;91880.66;6185879;23;20547;-73
2022/04/17 06:30:48;;;;;;;5.80;5.20;;;;;;;12.88;91.66;91879.28;6186478;23;20546;-73
2022/04/17 06:33:15;;;;;;;9.23;8.37;;;;;;;12.83;92.76;91879.56;6186240;23;20155;-75
2022/04/17 06:35:42;;;;;;;5.70;4.83;;;;;;;12.62;92.71;91870.75;6186229;23;20549;-75
2022/04/17 06:38:10;;;;;;;6.17;5.57;;;;;;;12.35;92.65;91817.56;6186050;23;20528;-73
2022/04/17 06:40:38;;;;;;;6.97;6.47;;;;;;;12.69;92.65;91844.13;6185471;23;20433;-74
2022/04/17 06:43:08;;;;;;;6.00;5.63;;;;;;;12.79;92.54;91860.38;6185619;23;20398;-75
2022/04/17 06:45:38;;;;;;;21.87;10.83;;;;;;;12.68;94.36;91837.44;6186092;23;20574;-73
2022/04/17 06:48:14;;;;;;;11.07;7.63;;;;;;;12.83;92.25;91861.03;6185570;23;20460;-74
2022/04/17 06:50:41;;;;;;;11.83;7.30;;;;;;;12.82;92.65;91877.13;6186119;23;20452;-74
2022/04/17 06:53:09;;;;;;;15.83;7.93;;;;;;;12.73;92.56;91850.63;6186055;23;20511;-74
2022/04/17 06:55:36;;;;;;;10.40;7.13;;;;;;;12.89;91.05;91883.44;6186126;23;20542;-73
2022/04/17 06:58:04;;;;;;;11.20;6.90;;;;;;;12.41;90.90;91796.91;6186144;23;20484;-74
2022/04/17 07:00:32;;;;;;;6.97;6.40;;;;;;;13.00;89.54;91886.13;6185978;23;20440;-73
2022/04/17 07:03:01;;;;;;;6.00;5.37;;;;;;;12.43;88.96;91791.78;6186213;23;20464;-74
2022/04/17 07:05:28;;;;;;;5.77;5.37;;;;;;;12.56;89.85;91820.50;6185866;23;20178;-74
2022/04/17 07:08:01;;;;;;;6.70;6.07;;;;;;;12.58;89.62;91797.56;6185912;23;20457;-74
2022/04/17 07:10:30;;;;;;;6.97;6.33;;;;;;;12.72;89.71;91835.53;6186482;23;20547;-75
2022/04/17 07:12:57;;;;;;;8.30;6.80;;;;;;;12.97;89.78;91844.91;6186077;23;20150;-73
2022/04/17 07:15:25;;;;;;;7.27;6.60;;;;;;;13.09;90.86;91882.97;6185465;23;20598;-75
2022/04/17 07:17:53;;;;;;;8.23;7.43;;;;;;;13.23;89.00;91888.03;6185927;23;20460;-75
2022/04/17 07:20:23;;;;;;;13.03;7.80;;;;;;;13.13;88.86;91876.81;6186023;23;20542;-74
2022/04/17 07:22:52;;;;;;;7.30;6.70;;;;;;;13.11;89.01;91863.41;6184068;23;20490;-72
2022/04/17 07:25:20;;;;;;;9.20;8.30;;;;;;;13.28;88.63;91891.09;6184328;23;20505;-73
2022/04/17 07:27:49;;;;;;;8.00;7.30;;;;;;;12.99;89.60;91863.38;6183208;23;20464;-72
2022/04/17 07:30:18;;;;;;;7.77;7.00;;;;;;;13.21;91.00;91889.03;6183612;23;20527;-72
2022/04/17 07:32:49;;;;;;;9.17;6.90;;;;;;;13.28;90.53;91892.81;6185642;23;20395;-74
2022/04/17 07:35:18;;;;;;;13.87;9.33;;;;;;;12.99;89.11;91845.63;6185979;23;20596;-74
2022/04/17 07:37:50;;;;;;;10.10;8.60;;;;;;;13.43;87.52;91896.06;6185940;23;20523;-74
2022/04/17 07:40:21;;;;;;;7.33;5.97;;;;;;;13.38;87.38;91888.75;6185997;23;20425;-73
2022/04/17 07:42:49;;;;;;;6.83;6.23;;;;;;;13.32;86.99;91914.50;6186187;23;20528;-74
2022/04/17 07:45:18;;;;;;;5.13;4.63;;;;;;;13.15;86.64;91887.69;6185428;23;21013;-74
2022/04/17 07:47:46;;;;;;;8.17;6.17;;;;;;;13.00;87.35;91868.38;6184895;23;20582;-74
2022/04/17 07:50:15;;;;;;;6.03;5.53;;;;;;;12.88;86.83;91837.00;6185982;23;20460;-74
2022/04/17 07:52:43;;;;;;;8.57;5.77;;;;;;;12.69;87.18;91828.13;6186964;23;20394;-72
2022/04/17 07:55:14;;;;;;;7.60;6.90;;;;;;;13.18;88.17;91907.78;6185052;23;20163;-73
2022/04/17 07:57:56;;;;;;;8.53;7.80;;;;;;;13.07;89.87;91907.63;6185604;23;20184;-73
2022/04/17 08:00:25;;;;;;;6.93;6.43;;;;;;;12.99;89.35;91881.94;6185113;23;20155;-73
2022/04/17 08:02:59;;;;;;;8.43;7.57;;;;;;;12.97;90.39;91898.16;6185585;23;20154;-75
2022/04/17 08:05:26;;;;;;;7.67;6.97;;;;;;;12.92;90.31;91903.53;6185164;23;20234;-73
2022/04/17 08:07:53;;;;;;;5.20;4.80;;;;;;;12.75;90.23;91901.22;6185449;23;20483;-74
2022/04/17 08:10:22;;;;;;;5.10;4.70;;;;;;;12.75;90.38;91896.97;6185184;23;20407;-74
2022/04/17 08:12:51;;;;;;;6.43;5.70;;;;;;;12.63;91.15;91880.00;6185168;23;20374;-72
2022/04/17 08:15:18;;;;;;;8.50;6.93;;;;;;;12.44;90.87;91823.78;6185390;23;20441;-73
2022/04/17 08:17:46;;;;;;;6.57;6.00;;;;;;;12.85;91.57;91897.19;6185019;23;20527;-74
2022/04/17 08:20:13;;;;;;;8.10;5.50;;;;;;;12.60;91.15;91846.44;6184727;23;20468;-73
2022/04/17 08:22:40;;;;;;;6.83;5.57;;;;;;;12.96;90.46;91886.41;6185185;23;20205;-72
2022/04/17 08:25:08;;;;;;;5.77;5.47;;;;;;;13.04;89.87;91874.03;6185293;23;20577;-74
2022/04/17 08:27:46;;;;;;;6.20;5.70;;;;;;;13.39;88.78;91892.91;6185268;23;20422;-74
2022/04/17 08:30:14;;;;;;;10.53;5.67;;;;;;;13.21;89.01;91866.19;6185817;23;20377;-73
2022/04/17 08:32:42;;;;;;;5.47;4.97;;;;;;;12.94;89.88;91870.47;6184919;23;20562;-73
2022/04/17 08:35:09;;;;;;;6.03;5.47;;;;;;;12.77;90.53;91871.53;6185210;23;20185;-73
2022/04/17 08:37:37;;;;;;;5.50;5.10;;;;;;;12.77;90.64;91866.47;6185215;23;20397;-73
2022/04/17 08:40:05;;;;;;;4.80;4.50;;;;;;;12.80;89.95;91868.81;6185074;23;20566;-73
2022/04/17 08:42:33;;;;;;;6.00;5.60;;;;;;;13.07;89.44;91882.25;6184829;23;20559;-73
2022/04/17 08:45:02;;;;;;;7.43;6.50;;;;;;;13.01;89.99;91870.00;6185115;23;20557;-73
2022/04/17 08:47:30;;;;;;;4.97;4.57;;;;;;;13.16;89.90;91884.25;6185228;23;20648;-73
2022/04/17 08:49:58;;;;;;;6.77;6.17;;;;;;;12.84;89.55;91847.44;6184948;23;20603;-74
2022/04/17 08:52:29;;;;;;;7.00;6.30;;;;;;;13.10;90.07;91871.13;6184668;23;20406;-74
2022/04/17 08:54:59;;;;;;;4.43;4.23;;;;;;;13.21;89.17;91873.81;6184999;23;20158;-75
2022/04/17 08:57:26;;;;;;;3.60;3.40;;;;;;;13.08;89.51;91868.66;6185094;23;20594;-74
2022/04/17 08:59:54;;;;;;;3.47;3.27;;;;;;;13.10;88.91;91858.44;6184821;23;20415;-74
2022/04/17 09:02:22;;;;;;;5.03;4.80;;;;;;;12.99;91.14;91868.47;6158728;23;20392;-74
2022/04/17 09:04:50;;;;;;;3.57;3.37;;;;;;;13.13;89.05;91871.75;6184699;23;20405;-74
2022/04/17 09:07:17;;;;;;;3.80;3.50;;;;;;;13.26;89.44;91866.72;6184479;23;20894;-74
2022/04/17 09:09:50;;;;;;;2.47;2.37;;;;;;;13.21;89.46;91874.63;6185465;23;20388;-74
2022/04/17 09:12:22;;;;;;;3.93;3.70;;;;;;;13.06;89.55;91840.09;6184553;23;20216;-75
2022/04/17 09:14:50;;;;;;;2.87;2.73;;;;;;;13.12;89.99;91867.63;6184660;23;20390;-75
2022/04/17 09:17:19;;;;;;;3.23;3.13;;;;;;;13.05;90.57;91865.53;6184884;23;20408;-76
2022/04/17 09:19:51;;;;;;;3.13;2.93;;;;;;;13.07;91.46;91848.50;6184969;23;20398;-75
2022/04/17 09:22:18;;;;;;;3.67;3.47;;;;;;;12.74;92.98;91852.25;6184514;23;20531;-76
2022/04/17 09:24:45;;;;;;;3.43;3.23;;;;;;;12.70;93.43;91847.47;6184092;23;20426;-76
2022/04/17 09:27:13;;;;;;;2.80;2.70;;;;;;;12.36;94.91;91813.31;6184575;23;20550;-75
2022/04/17 09:29:41;;;;;;;3.53;3.33;;;;;;;12.54;94.98;91796.97;6184861;23;20464;-76
2022/04/17 09:32:10;;;;;;;3.80;3.47;;;;;;;12.66;94.38;91813.13;6184506;23;20270;-75
2022/04/17 09:34:46;;;;;;;3.77;3.10;;;;;;;12.63;95.23;91834.38;6184410;23;20468;-74
2022/04/17 09:37:16;;;;;;;3.03;2.83;;;;;;;12.06;95.15;91750.19;6186381;23;20470;-74
2022/04/17 09:39:45;;;;;;;3.13;3.03;;;;;;;12.51;95.96;91814.06;6186587;23;20570;-75
2022/04/17 09:42:13;;;;;;;2.93;2.80;;;;;;;12.60;94.54;91819.38;6186691;23;20531;-75
2022/04/17 09:44:54;;;;;;;5.47;4.13;;;;;;;11.98;96.12;91765.88;6186591;23;20503;-75
2022/04/17 09:47:22;;;;;;;5.77;5.27;;;;;;;11.93;96.78;91749.34;6186401;23;20511;-76
2022/04/17 09:49:54;;;;;;;7.87;5.30;;;;;;;12.02;96.67;91746.22;6186486;23;20481;-75
2022/04/17 09:52:24;;;;;;;7.33;6.53;;;;;;;12.49;96.21;91810.84;6186643;23;20559;-75
2022/04/17 09:54:52;;;;;;;5.37;4.87;;;;;;;12.37;96.79;91805.63;6187175;23;20610;-75
2022/04/17 09:57:20;;;;;;;42.37;13.50;;;;;;;12.55;96.18;91802.84;6186550;23;20423;-74
2022/04/17 09:59:48;;;;;;;12.87;8.30;;;;;;;12.22;97.51;91791.41;6186443;23;20470;-74
2022/04/17 10:02:17;;;;;;;10.27;7.27;;;;;;;12.42;96.72;91796.03;6186571;23;20440;-74
2022/04/17 10:04:46;;;;;;;31.53;11.00;;;;;;;12.49;95.86;91796.44;6186308;23;20396;-74
2022/04/17 10:07:14;;;;;;;19.27;9.53;;;;;;;12.53;95.20;91786.94;6185176;23;20200;-74
2022/04/17 10:09:44;;;;;;;8.00;6.73;;;;;;;12.49;96.06;91768.59;6185405;23;20590;-75
2022/04/17 10:12:14;;;;;;;15.63;9.20;;;;;;;12.37;95.98;91774.41;6185840;23;20527;-76
2022/04/17 10:14:43;;;;;;;16.83;10.53;;;;;;;11.94;96.63;91731.50;6186014;23;20576;-75
2022/04/17 10:17:11;;;;;;;10.73;7.63;;;;;;;12.41;95.98;91773.31;6185529;23;20565;-76
2022/04/17 10:19:42;;;;;;;4.53;4.23;;;;;;;12.45;93.15;91789.94;6186032;23;20589;-74
2022/04/17 10:22:13;;;;;;;6.37;5.87;;;;;;;12.38;92.11;91781.13;6186241;23;20366;-75
2022/04/17 10:24:51;;;;;;;11.17;6.77;;;;;;;12.26;90.69;91790.28;6186453;23;20531;-75
2022/04/17 10:27:24;;;;;;;5.00;4.70;;;;;;;12.22;91.58;91778.75;6186576;23;20551;-75
2022/04/17 10:29:57;;;;;;;4.87;4.47;;;;;;;12.16;91.21;91791.78;6186780;23;20467;-74
2022/04/17 10:32:58;;;;;;;4.83;4.53;;;;;;;12.08;91.73;91753.44;6186161;23;20201;-74
2022/04/17 10:35:41;;;;;;;4.80;4.40;;;;;;;12.26;91.49;91790.28;6186760;23;20480;-74
2022/04/17 10:38:28;;;;;;;5.97;5.40;;;;;;;11.77;92.74;91746.13;6186638;23;20494;-73
2022/04/17 10:41:07;;;;;;;5.50;5.10;;;;;;;12.03;93.21;91779.06;6186909;23;20508;-73
2022/04/17 10:43:35;;;;;;;5.97;5.57;;;;;;;11.89;92.61;91758.00;6186438;23;20185;-73
2022/04/17 10:46:14;;;;;;;5.57;5.07;;;;;;;12.14;92.89;91782.63;6186968;23;20174;-73
2022/04/17 10:48:45;;;;;;;5.90;5.37;;;;;;;11.79;92.03;91719.81;6126174;23;20548;-73
2022/04/17 10:51:18;;;;;;;7.40;5.67;;;;;;;11.77;93.61;91736.00;6128092;23;20505;-72
2022/04/17 10:54:03;;;;;;;8.23;7.20;;;;;;;11.97;93.37;91728.81;6126568;23;20566;-72
2022/04/17 10:56:36;;;;;;;8.70;5.87;;;;;;;11.80;92.35;91700.38;6126448;23;20401;-72
2022/04/17 10:59:06;;;;;;;6.87;6.23;;;;;;;11.53;92.10;91726.44;6127684;23;20430;-72
2022/04/17 11:01:56;;;;;;;5.50;4.93;;;;;;;11.78;93.43;91780.63;6126431;23;20452;-73
2022/04/17 11:04:25;;;;;;;5.50;5.00;;;;;;;11.95;93.26;91775.34;6127785;23;20402;-73
2022/04/17 11:07:10;;;;;;;6.53;6.03;;;;;;;12.23;93.23;91782.06;6126955;23;20580;-73
2022/04/17 11:09:41;;;;;;;7.70;6.97;;;;;;;12.02;93.10;91734.38;6126561;23;20560;-72
2022/04/17 11:12:26;;;;;;;17.07;9.33;;;;;;;12.10;91.35;91763.50;6126118;23;20156;-73
2022/04/17 11:14:55;;;;;;;3.53;3.33;;;;;;;12.02;91.70;91781.66;6126869;23;20404;-73
2022/04/17 11:17:23;;;;;;;3.17;2.97;;;;;;;11.71;91.55;91695.88;6126729;23;20416;-74
2022/04/17 11:19:54;;;;;;;4.80;4.40;;;;;;;12.38;91.44;91773.53;6128039;23;20517;-73
2022/04/17 11:22:27;;;;;;;6.53;3.87;;;;;;;12.07;92.20;91697.84;6126729;23;20418;-73
2022/04/17 11:25:13;;;;;;;4.97;4.57;;;;;;;12.18;91.01;91713.16;6127976;23;20391;-73
2022/04/17 11:27:43;;;;;;;4.87;4.47;;;;;;;12.23;90.30;91719.56;6126150;23;20556;-73
2022/04/17 11:30:31;;;;;;;5.80;5.40;;;;;;;12.48;88.76;91768.66;6125758;23;20458;-73
2022/04/17 11:33:01;;;;;;;4.37;4.07;;;;;;;12.35;88.90;91745.84;6126119;23;20552;-73
2022/04/17 11:35:30;;;;;;;4.10;3.87;;;;;;;12.61;89.91;91752.59;6124877;23;20544;-73
2022/04/17 11:38:05;;;;;;;3.50;3.30;;;;;;;12.26;91.51;91713.50;6126125;23;20579;-73
2022/04/17 11:40:35;;;;;;;2.57;2.47;;;;;;;12.10;88.97;91716.19;6125828;23;20156;-73
2022/04/17 11:43:12;;;;;;;2.27;2.17;;;;;;;12.15;88.74;91739.50;6125933;23;20462;-73
2022/04/17 11:45:40;;;;;;;1.57;1.50;;;;;;;11.94;88.91;91754.28;6126361;23;20493;-73
2022/04/17 11:48:10;;;;;;;2.57;2.47;;;;;;;11.97;89.52;91740.66;6175419;23;20598;-72
2022/04/17 11:50:38;;;;;;;1.93;1.83;;;;;;;11.92;88.42;91679.38;6186085;23;20602;-72
2022/04/17 11:53:10;;;;;;;2.07;1.97;;;;;;;12.11;88.02;91709.41;6185745;23;20412;-72
2022/04/17 11:55:39;;;;;;;2.60;2.50;;;;;;;12.57;86.85;91737.69;6185613;23;20377;-72
2022/04/17 11:58:14;;;;;;;2.63;2.53;;;;;;;12.43;86.05;91736.84;6185440;23;20574;-72
2022/04/17 12:00:42;;;;;;;4.63;4.33;;;;;;;12.37;87.70;91749.09;6185900;23;20408;-73
2022/04/17 12:03:11;;;;;;;2.10;2.00;;;;;;;12.23;87.49;91739.00;6185424;23;20551;-74
2022/04/17 12:05:39;;;;;;;2.57;2.37;;;;;;;12.21;87.78;91739.13;6183982;23;20414;-74
2022/04/17 12:08:09;;;;;;;2.30;2.20;;;;;;;12.04;88.34;91711.53;6183263;23;20421;-74
2022/04/17 12:10:38;;;;;;;1.60;1.60;;;;;;;11.37;88.78;91682.75;6156720;23;20409;-74
2022/04/17 12:13:15;;;;;;;2.13;2.03;;;;;;;11.96;87.86;91739.00;6184537;23;20237;-74
2022/04/17 12:15:43;;;;;;;2.80;2.70;;;;;;;11.43;90.30;91679.03;6186175;23;20387;-74
2022/04/17 12:18:11;;;;;;;4.20;3.20;;;;;;;11.14;91.76;91646.22;6184948;23;20523;-74
2022/04/17 12:20:38;;;;;;;4.13;3.83;;;;;;;11.23;91.77;91629.69;6185550;23;20194;-74
2022/04/17 12:23:09;;;;;;;4.00;3.80;;;;;;;11.92;90.63;91699.63;6185327;23;20411;-73
2022/04/17 12:25:37;;;;;;;3.97;3.60;;;;;;;12.01;89.28;91704.09;6185828;23;20187;-74
2022/04/17 12:28:05;;;;;;;3.93;3.63;;;;;;;11.70;89.13;91669.75;6185259;23;20616;-75
2022/04/17 12:30:34;;;;;;;3.27;3.07;;;;;;;11.48;89.16;91634.88;6184509;23;20583;-74
2022/04/17 12:33:02;;;;;;;2.67;2.57;;;;;;;11.43;90.08;91671.47;6185284;23;20589;-74
2022/04/17 12:35:32;;;;;;;4.53;4.23;;;;;;;11.63;90.28;91673.56;6185274;23;20546;-74
2022/04/17 12:38:06;;;;;;;4.83;4.53;;;;;;;11.89;90.37;91692.22;6185946;23;20204;-74
2022/04/17 12:40:42;;;;;;;3.47;3.27;;;;;;;11.83;91.11;91693.41;6185537;23;20180;-74
2022/04/17 12:43:20;;;;;;;3.80;3.50;;;;;;;11.20;89.47;91605.41;6186107;23;20440;-74
2022/04/17 12:46:00;;;;;;;3.63;3.43;;;;;;;11.24;89.81;91613.59;6186363;23;20395;-73
2022/04/17 12:48:31;;;;;;;5.00;3.77;;;;;;;11.39;88.97;91599.19;6185327;23;20605;-74
2022/04/17 12:51:04;;;;;;;3.53;3.33;;;;;;;11.84;87.84;91644.41;6185366;23;20154;-74
2022/04/17 12:53:36;;;;;;;2.60;2.40;;;;;;;11.59;88.92;91602.13;6185238;23;20593;-74
2022/04/17 12:56:04;;;;;;;4.30;4.00;;;;;;;12.00;88.98;91679.69;6185256;23;20177;-73
2022/04/17 12:58:46;;;;;;;3.67;3.40;;;;;;;11.93;90.11;91660.75;6185666;23;20150;-74
2022/04/17 13:01:22;;;;;;;5.63;4.17;;;;;;;11.91;89.04;91637.25;6185474;23;20408;-74
2022/04/17 13:03:50;;;;;;;5.77;3.83;;;;;;;11.99;89.77;91675.56;6185472;23;20535;-74
2022/04/17 13:06:22;;;;;;;3.83;3.53;;;;;;;11.52;88.62;91592.47;6186751;23;20512;-74
2022/04/17 13:09:04;;;;;;;2.53;2.37;;;;;;;11.72;86.83;91627.44;6185925;23;20273;-74
2022/04/17 13:11:33;;;;;;;2.30;2.10;;;;;;;11.63;87.58;91640.69;6185624;23;20515;-74
2022/04/17 13:14:02;;;;;;;2.50;2.30;;;;;;;11.56;87.86;91642.78;6185145;23;20420;-74
2022/04/17 13:16:32;;;;;;;3.50;3.30;;;;;;;11.56;88.27;91654.59;6186464;23;20439;-74
2022/04/17 13:19:00;;;;;;;3.97;3.67;;;;;;;11.60;87.80;91672.03;6185510;23;20440;-74
2022/04/17 13:21:28;;;;;;;9.03;5.77;;;;;;;11.47;87.12;91673.69;6186725;23;20559;-73
2022/04/17 13:23:55;;;;;;;5.50;4.40;;;;;;;10.95;86.59;91576.66;6185129;23;20560;-74
2022/04/17 13:26:22;;;;;;;6.13;4.13;;;;;;;10.91;87.62;91581.09;6185730;23;20455;-74
2022/04/17 13:28:50;;;;;;;4.70;4.33;;;;;;;10.70;86.32;91562.19;6185750;23;20622;-75
2022/04/17 13:31:17;;;;;;;2.73;2.53;;;;;;;11.00;87.32;91631.06;6185362;23;20510;-73
2022/04/17 13:33:46;;;;;;;5.50;5.00;;;;;;;11.38;87.18;91658.28;6185204;23;20209;-73
2022/04/17 13:36:13;;;;;;;7.87;4.23;;;;;;;11.30;87.40;91646.09;6185060;23;20381;-74
2022/04/17 13:38:41;;;;;;;3.50;2.93;;;;;;;11.35;87.54;91655.94;6184842;23;20155;-74
2022/04/17 13:41:08;;;;;;;3.83;3.53;;;;;;;10.92;88.89;91586.97;6185577;23;20527;-74
2022/04/17 13:43:35;;;;;;;4.03;3.67;;;;;;;10.96;89.08;91603.56;6185228;23;20464;-74
2022/04/17 13:46:03;;;;;;;1.80;1.70;;;;;;;11.05;89.20;91602.97;6184852;23;20154;-74
2022/04/17 13:48:31;;;;;;;3.13;2.93;;;;;;;11.15;89.53;91626.81;6184838;23;20454;-74
2022/04/17 13:51:05;;;;;;;3.17;3.03;;;;;;;11.33;89.98;91643.38;6185178;23;20610;-73
2022/04/17 13:53:33;;;;;;;2.50;2.37;;;;;;;10.61;90.11;91558.47;6184839;23;20178;-74
2022/04/17 13:56:00;;;;;;;1.60;1.60;;;;;;;10.74;89.98;91576.25;6184794;23;20457;-74
2022/04/17 13:58:28;;;;;;;5.23;2.07;;;;;;;11.02;90.64;91638.56;6186793;23;20162;-74
2022/04/17 14:00:57;;;;;;;1.40;1.30;;;;;;;11.09;89.91;91649.94;6185572;23;20155;-73
2022/04/17 14:03:25;;;;;;;1.00;1.00;;;;;;;10.73;90.51;91587.25;6184815;23;20504;-74
2022/04/17 14:05:53;;;;;;;1.67;1.57;;;;;;;10.64;90.83;91576.00;6186878;23;20503;-73
2022/04/17 14:08:22;;;;;;;2.20;2.10;;;;;;;10.80;90.68;91593.56;6184937;23;20500;-73
2022/04/17 14:10:50;;;;;;;1.97;1.70;;;;;;;11.02;90.55;91644.44;6185907;23;20416;-73
2022/04/17 14:13:18;;;;;;;1.40;1.40;;;;;;;10.64;90.59;91615.59;6159810;23;20515;-73
2022/04/17 14:15:46;;;;;;;1.93;1.93;;;;;;;10.75;90.45;91648.59;6184981;23;20508;-73
2022/04/17 14:18:13;;;;;;;2.07;1.97;;;;;;;10.77;89.62;91637.50;6185462;23;20478;-73
2022/04/17 14:20:40;;;;;;;4.63;2.80;;;;;;;10.49;89.82;91609.69;6184602;23;20540;-73
2022/04/17 14:23:08;;;;;;;2.33;2.13;;;;;;;10.56;90.02;91617.75;6186158;23;20166;-74
2022/04/17 14:25:38;;;;;;;8.17;5.60;;;;;;;10.85;90.38;91654.72;6188732;23;20150;-73
2022/04/17 14:28:06;;;;;;;4.03;3.10;;;;;;;10.93;90.25;91641.66;6186828;23;20569;-73
2022/04/17 14:30:33;;;;;;;2.80;2.70;;;;;;;10.54;91.57;91622.88;6186828;23;20397;-73
2022/04/17 14:33:00;;;;;;;2.10;2.00;;;;;;;10.45;91.89;91615.03;6186826;23;20579;-73
2022/04/17 14:35:28;;;;;;;3.60;3.40;;;;;;;10.26;89.65;91592.56;6187096;23;20527;-73
2022/04/17 14:37:55;;;;;;;6.17;5.57;;;;;;;10.70;89.27;91656.44;6186466;23;20508;-73
2022/04/17 14:40:23;;;;;;;2.73;2.57;;;;;;;10.67;88.57;91658.31;6187073;23;20154;-73
2022/04/17 14:42:52;;;;;;;5.17;4.20;;;;;;;10.48;88.58;91617.41;6186544;23;20460;-74
2022/04/17 14:45:25;;;;;;;3.70;3.50;;;;;;;10.33;87.71;91616.56;6186981;23;20512;-73
2022/04/17 14:47:52;;;;;;;4.87;4.37;;;;;;;10.41;87.93;91656.50;6186025;23;20202;-74
2022/04/17 14:50:20;;;;;;;13.47;6.57;;;;;;;10.43;87.01;91652.16;6186395;23;20220;-73
2022/04/17 14:52:49;;;;;;;5.53;4.53;;;;;;;10.11;88.46;91604.31;6186666;23;20561;-74
2022/04/17 14:55:16;;;;;;;3.13;3.03;;;;;;;10.11;87.71;91614.41;6187233;23;20548;-73
2022/04/17 14:57:43;;;;;;;3.40;3.27;;;;;;;10.45;86.37;91670.56;6186072;23;20563;-73
2022/04/17 15:00:13;;;;;;;3.87;3.50;;;;;;;10.55;86.53;91669.13;6185744;23;20163;-73
2022/04/17 15:02:41;;;;;;;2.67;2.50;;;;;;;10.52;86.15;91669.31;6186095;23;20441;-73
2022/04/17 15:05:09;;;;;;;3.13;2.93;;;;;;;10.39;87.15;91654.88;6186242;23;20574;-73
2022/04/17 15:07:37;;;;;;;4.00;3.53;;;;;;;9.77;90.19;91562.53;6186105;23;20585;-73
2022/04/17 15:10:05;;;;;;;10.10;6.10;;;;;;;10.26;87.09;91641.31;6185909;23;20375;-73
2022/04/17 15:12:32;;;;;;;3.10;2.70;;;;;;;10.40;84.91;91673.38;6186896;23;20516;-73
2022/04/17 15:14:59;;;;;;;5.60;4.07;;;;;;;9.88;84.90;91619.94;6185997;23;20230;-73
2022/04/17 15:17:28;;;;;;;4.67;3.43;;;;;;;10.04;85.53;91624.94;6186856;23;20547;-73
2022/04/17 15:19:56;;;;;;;4.17;3.87;;;;;;;9.99;86.64;91638.63;6186038;23;20531;-73
2022/04/17 15:22:23;;;;;;;5.50;3.50;;;;;;;9.91;84.66;91620.56;6186274;23;20368;-73
2022/04/17 15:24:51;;;;;;;7.70;4.10;;;;;;;10.08;84.89;91639.03;6187564;23;20547;-73
2022/04/17 15:27:18;;;;;;;29.53;10.63;;;;;;;10.07;84.78;91670.19;6186061;23;20444;-73
2022/04/17 15:29:46;;;;;;;19.10;6.13;;;;;;;9.90;85.02;91641.69;6187169;23;20438;-73
2022/04/17 15:32:13;;;;;;;5.27;4.27;;;;;;;9.74;85.85;91613.16;6186072;23;20476;-73
2022/04/17 15:34:42;;;;;;;3.63;3.43;;;;;;;10.11;85.06;91671.63;6186386;23;20462;-73
2022/04/17 15:37:09;;;;;;;3.40;3.20;;;;;;;9.99;84.99;91665.56;6186218;23;20476;-74
2022/04/17 15:39:37;;;;;;;2.60;2.50;;;;;;;10.01;85.23;91670.53;6185654;23;20615;-74
2022/04/17 15:42:06;;;;;;;3.23;2.80;;;;;;;10.15;84.96;91676.44;6186967;23;20603;-74
2022/04/17 15:50:16;;;;;;;3.63;3.40;;;;;;;9.77;86.28;91615.50;6091922;23;20656;-74
2022/04/17 15:52:43;;;;;;;6.93;3.80;;;;;;;9.91;85.38;91633.19;6164113;23;20419;-74
2022/04/17 15:55:10;;;;;;;5.23;4.73;;;;;;;10.26;84.93;91669.09;6185927;23;20413;-74
2022/04/17 15:57:40;;;;;;;4.70;4.30;;;;;;;9.89;84.75;91606.44;6185582;23;20545;-74
2022/04/17 16:00:08;;;;;;;9.20;4.50;;;;;;;10.27;82.82;91657.28;6185522;23;20527;-74
2022/04/17 16:02:35;;;;;;;6.00;5.30;;;;;;;10.03;84.30;91631.69;6187142;23;20463;-74
2022/04/17 16:05:03;;;;;;;4.97;4.20;;;;;;;10.34;85.29;91658.56;6186782;23;20257;-74
2022/04/17 16:07:33;;;;;;;4.73;4.33;;;;;;;10.08;85.97;91609.56;6186610;23;20390;-74
2022/04/17 16:10:00;;;;;;;3.43;3.13;;;;;;;10.30;84.79;91663.00;6185943;23;20491;-73
2022/04/17 16:12:28;;;;;;;1.70;1.60;;;;;;;10.07;83.77;91632.34;6185590;23;20251;-74
2022/04/17 16:14:55;;;;;;;3.13;2.93;;;;;;;10.20;82.73;91656.00;6185718;23;20519;-74
2022/04/17 16:17:23;;;;;;;2.93;2.57;;;;;;;9.88;79.67;91613.19;6186736;23;20427;-74
2022/04/17 16:19:51;;;;;;;3.70;2.90;;;;;;;9.75;79.93;91616.47;6185603;23;20577;-74
2022/04/17 16:22:19;;;;;;;4.80;4.50;;;;;;;10.06;80.27;91671.91;6185640;23;20597;-74
2022/04/17 16:24:48;;;;;;;5.40;4.90;;;;;;;10.08;79.77;91649.94;6185376;23;20469;-74
2022/04/17 16:27:15;;;;;;;4.13;3.73;;;;;;;10.07;80.83;91673.53;6186530;23;20579;-74
2022/04/17 16:29:42;;;;;;;8.13;7.40;;;;;;;9.90;80.00;91677.00;6185570;23;20589;-73
2022/04/17 16:32:10;;;;;;;5.60;4.23;;;;;;;9.99;80.65;91680.72;6185624;23;20468;-72
2022/04/17 16:34:38;;;;;;;6.67;4.80;;;;;;;9.97;80.64;91664.84;6185326;23;20547;-71
2022/04/17 16:37:06;;;;;;;6.87;4.87;;;;;;;10.04;81.76;91668.66;6185639;23;20500;-72